createdAt,value
2019-01-15T00:00:23.635Z,67.63
2019-01-15T00:02:55.998Z,67.19
2019-01-15T00:05:28.856Z,66.67
2019-01-15T00:08:00.120Z,66.01
2019-01-15T00:10:31.086Z,67.34
2019-01-15T00:13:03.449Z,66.98
2019-01-15T00:15:34.749Z,66.51
2019-01-15T00:18:06.165Z,66.11
2019-01-15T00:20:37.853Z,66.38
2019-01-15T00:23:10.492Z,66.11
2019-01-15T00:25:41.617Z,65.44
2019-01-15T00:28:12.682Z,65.87
2019-01-15T00:30:44.098Z,66.31
2019-01-15T00:33:15.353Z,65.46
2019-01-15T00:35:46.902Z,65.45
2019-01-15T00:38:17.961Z,65.67
2019-01-15T00:40:49.361Z,66.01
2019-01-15T00:43:21.601Z,65.62
2019-01-15T00:45:53.235Z,65.50
2019-01-15T00:48:24.872Z,65.62
2019-01-15T00:50:56.116Z,64.70
2019-01-15T00:53:28.336Z,65.07
2019-01-15T00:55:59.635Z,65.66
2019-01-15T00:58:30.634Z,65.61
2019-01-15T01:01:01.929Z,65.96
2019-01-15T01:03:34.140Z,65.61
2019-01-15T01:06:05.336Z,65.74
2019-01-15T01:08:36.409Z,65.50
2019-01-15T01:11:07.470Z,65.08
2019-01-15T01:13:38.469Z,65.73
2019-01-15T01:16:09.514Z,65.26
2019-01-15T01:18:40.810Z,65.79
2019-01-15T01:21:12.112Z,65.03
2019-01-15T01:23:43.175Z,65.87
2019-01-15T01:26:14.311Z,65.67
2019-01-15T01:28:45.542Z,65.41
2019-01-15T01:31:16.591Z,66.06
2019-01-15T01:33:47.601Z,65.33
2019-01-15T01:36:18.856Z,65.90
2019-01-15T01:38:49.922Z,66.18
2019-01-15T01:41:21.144Z,66.26
2019-01-15T01:43:52.212Z,65.98
2019-01-15T01:46:23.429Z,64.92
2019-01-15T01:48:54.649Z,65.59
2019-01-15T01:51:26.124Z,65.54
2019-01-15T01:53:57.576Z,65.13
2019-01-15T01:56:28.698Z,64.77
2019-01-15T01:58:59.956Z,64.12
2019-01-15T02:01:31.641Z,65.16
2019-01-15T02:04:02.705Z,64.72
2019-01-15T02:06:33.743Z,64.04
2019-01-15T02:09:07.705Z,64.12
2019-01-15T02:11:38.749Z,64.60
2019-01-15T02:14:09.834Z,63.83
2019-01-15T02:16:41.145Z,64.69
2019-01-15T02:19:12.588Z,64.81
2019-01-15T02:21:43.815Z,64.33
2019-01-15T02:24:14.797Z,64.06
2019-01-15T02:26:46.942Z,63.67
2019-01-15T02:29:18.286Z,64.69
2019-01-15T02:31:49.860Z,64.29
2019-01-15T02:34:20.942Z,65.10
2019-01-15T02:36:51.893Z,63.92
2019-01-15T02:39:23.497Z,63.66
2019-01-15T02:41:54.487Z,64.74
2019-01-15T02:44:26.220Z,64.42
2019-01-15T02:46:57.668Z,63.90
2019-01-15T02:49:28.858Z,64.09
2019-01-15T02:51:59.963Z,64.53
2019-01-15T02:54:31.286Z,64.48
2019-01-15T02:57:02.322Z,64.55
2019-01-15T02:59:33.683Z,63.93
2019-01-15T03:02:05.365Z,65.13
2019-01-15T03:04:36.348Z,63.94
2019-01-15T03:07:08.001Z,64.26
2019-01-15T03:09:39.192Z,64.85
2019-01-15T03:12:10.315Z,64.26
2019-01-15T03:14:41.634Z,63.73
2019-01-15T03:17:12.704Z,63.45
2019-01-15T03:19:44.527Z,63.47
2019-01-15T03:22:15.543Z,64.38
2019-01-15T03:24:46.844Z,64.35
2019-01-15T03:27:18.088Z,63.76
2019-01-15T03:29:49.337Z,63.61
2019-01-15T03:32:20.612Z,63.45
2019-01-15T03:34:51.672Z,63.39
2019-01-15T03:37:22.896Z,63.87
2019-01-15T03:39:54.038Z,63.42
2019-01-15T03:42:25.075Z,63.35
2019-01-15T03:44:56.247Z,62.84
2019-01-15T03:47:27.523Z,63.37
2019-01-15T03:49:59.583Z,63.28
2019-01-15T03:52:31.245Z,63.39
2019-01-15T03:55:02.247Z,63.79
2019-01-15T03:57:33.286Z,63.56
2019-01-15T04:00:06.582Z,63.37
2019-01-15T04:02:37.798Z,62.93
2019-01-15T04:05:09.844Z,63.04
2019-01-15T04:07:42.088Z,62.82
2019-01-15T04:10:14.072Z,63.95
2019-01-15T04:12:45.180Z,63.80
2019-01-15T04:15:16.561Z,63.95
2019-01-15T04:17:50.304Z,63.58
2019-01-15T04:20:21.500Z,63.43
2019-01-15T04:22:52.809Z,64.59
2019-01-15T04:25:24.446Z,63.80
2019-01-15T04:27:55.494Z,63.63
2019-01-15T04:30:26.780Z,63.71
2019-01-15T04:32:58.169Z,63.98
2019-01-15T04:35:30.562Z,64.59
2019-01-15T04:38:01.867Z,64.82
2019-01-15T04:40:32.842Z,64.07
2019-01-15T04:43:04.088Z,64.08
2019-01-15T04:45:35.054Z,63.90
2019-01-15T04:48:06.685Z,64.41
2019-01-15T04:50:37.728Z,64.76
2019-01-15T04:53:09.200Z,64.55
2019-01-15T04:55:41.428Z,64.28
2019-01-15T04:58:12.574Z,64.16
2019-01-15T05:00:43.611Z,64.01
2019-01-15T05:03:14.990Z,64.18
2019-01-15T05:05:45.976Z,64.09
2019-01-15T05:08:16.953Z,64.32
2019-01-15T05:10:47.921Z,64.10
2019-01-15T05:13:18.915Z,64.09
2019-01-15T05:15:49.882Z,64.46
2019-01-15T05:18:22.538Z,64.27
2019-01-15T05:20:53.510Z,64.00
2019-01-15T05:23:24.514Z,64.33
2019-01-15T05:25:56.195Z,64.45
2019-01-15T05:28:27.245Z,64.57
2019-01-15T05:30:58.389Z,64.46
2019-01-15T05:33:29.693Z,64.21
2019-01-15T05:36:00.640Z,63.74
2019-01-15T05:38:31.627Z,63.71
2019-01-15T05:41:02.609Z,63.13
2019-01-15T05:43:35.860Z,63.67
2019-01-15T05:46:06.903Z,63.92
2019-01-15T05:48:38.247Z,63.92
2019-01-15T05:51:14.220Z,64.85
2019-01-15T05:53:45.521Z,64.57
2019-01-15T05:56:16.658Z,64.26
2019-01-15T05:58:47.735Z,63.94
2019-01-15T06:01:19.361Z,63.57
2019-01-15T06:03:50.339Z,63.96
2019-01-15T06:06:21.781Z,64.06
2019-01-15T06:08:52.820Z,63.99
2019-01-15T06:11:23.845Z,64.08
2019-01-15T06:13:55.467Z,64.09
2019-01-15T06:16:26.804Z,64.24
2019-01-15T06:18:58.863Z,64.28
2019-01-15T06:21:29.940Z,64.17
2019-01-15T06:24:01.052Z,64.32
2019-01-15T06:26:33.080Z,64.39
2019-01-15T06:29:04.619Z,64.41
2019-01-15T06:31:36.652Z,64.53
2019-01-15T06:34:08.019Z,64.59
2019-01-15T06:36:39.565Z,64.21
2019-01-15T06:39:11.281Z,64.47
2019-01-15T06:41:42.672Z,63.88
2019-01-15T06:44:14.431Z,64.51
2019-01-15T06:46:46.188Z,64.27
2019-01-15T06:49:17.475Z,64.49
2019-01-15T06:51:48.523Z,64.41
2019-01-15T06:54:19.650Z,64.19
2019-01-15T06:56:51.277Z,64.25
2019-01-15T06:59:22.245Z,64.01
2019-01-15T07:01:53.589Z,64.27
2019-01-15T07:04:24.646Z,63.95
2019-01-15T07:06:55.633Z,64.04
2019-01-15T07:09:26.757Z,64.07
2019-01-15T07:11:57.714Z,64.09
2019-01-15T07:14:29.618Z,64.23
2019-01-15T07:17:00.909Z,64.08
2019-01-15T07:19:31.911Z,63.85
2019-01-15T07:22:02.912Z,64.11
2019-01-15T07:24:34.042Z,63.87
2019-01-15T07:27:05.112Z,63.96
2019-01-15T07:29:36.626Z,63.84
2019-01-15T07:32:07.604Z,63.81
2019-01-15T07:34:38.585Z,63.78
2019-01-15T07:37:09.987Z,63.29
2019-01-15T07:39:41.307Z,63.49
2019-01-15T07:42:12.533Z,63.62
2019-01-15T07:44:44.059Z,63.99
2019-01-15T07:47:15.129Z,64.00
2019-01-15T07:49:46.438Z,64.24
2019-01-15T07:52:17.543Z,63.87
2019-01-15T07:54:49.160Z,63.90
2019-01-15T07:57:20.154Z,63.71
2019-01-15T07:59:51.243Z,63.70
2019-01-15T08:02:22.375Z,63.58
2019-01-15T08:04:53.342Z,64.17
2019-01-15T08:07:24.347Z,64.17
2019-01-15T08:09:55.318Z,63.79
2019-01-15T08:12:26.774Z,64.61
2019-01-15T08:14:57.749Z,64.39
2019-01-15T08:17:29.746Z,64.22
2019-01-15T08:20:00.793Z,64.75
2019-01-15T08:22:31.843Z,64.31
2019-01-15T08:25:03.147Z,64.32
2019-01-15T08:27:34.120Z,63.95
2019-01-15T08:30:10.336Z,64.08
2019-01-15T08:32:41.698Z,63.70
2019-01-15T08:35:12.931Z,63.71
2019-01-15T08:37:45.793Z,63.76
2019-01-15T08:40:17.148Z,64.32
2019-01-15T08:42:48.640Z,63.29
2019-01-15T08:45:20.070Z,64.55
2019-01-15T08:48:00.780Z,64.13
2019-01-15T08:50:33.188Z,63.95
2019-01-15T08:53:04.396Z,63.87
2019-01-15T08:55:35.805Z,63.57
2019-01-15T08:58:06.965Z,63.58
2019-01-15T09:00:37.935Z,64.18
2019-01-15T09:03:08.897Z,63.82
2019-01-15T09:05:39.947Z,63.53
2019-01-15T09:08:10.977Z,63.83
2019-01-15T09:10:42.130Z,63.51
2019-01-15T09:13:13.101Z,63.69
2019-01-15T09:15:44.104Z,63.68
2019-01-15T09:18:15.176Z,63.56
2019-01-15T09:20:46.300Z,63.34
2019-01-15T09:23:17.284Z,62.00
2019-01-15T09:25:48.336Z,62.48
2019-01-15T09:28:19.736Z,62.33
2019-01-15T09:30:50.859Z,61.74
2019-01-15T09:33:21.901Z,61.93
2019-01-15T09:35:52.908Z,61.81
2019-01-15T09:38:23.955Z,61.00
2019-01-15T09:40:55.153Z,60.81
2019-01-15T09:43:26.430Z,60.54
2019-01-15T09:45:57.502Z,60.79
2019-01-15T09:48:33.736Z,60.42
2019-01-15T09:51:05.367Z,60.91
2019-01-15T09:53:37.211Z,60.95
2019-01-15T09:56:08.281Z,61.15
2019-01-15T09:58:39.608Z,61.12
2019-01-15T10:01:11.251Z,62.80
2019-01-15T10:03:43.073Z,61.79
2019-01-15T10:06:14.396Z,62.34
2019-01-15T10:08:45.425Z,62.03
2019-01-15T10:11:16.795Z,62.27
2019-01-15T10:13:47.777Z,62.22
2019-01-15T10:16:19.073Z,62.77
2019-01-15T10:18:50.246Z,62.26
2019-01-15T10:21:21.587Z,62.75
2019-01-15T10:23:52.554Z,63.33
2019-01-15T10:26:24.267Z,62.89
2019-01-15T10:28:55.894Z,62.75
2019-01-15T10:32:26.757Z,61.84
2019-01-15T10:34:59.503Z,61.43
2019-01-15T10:37:30.642Z,62.99
2019-01-15T10:40:01.674Z,63.34
2019-01-15T10:42:33.974Z,63.30
2019-01-15T10:45:06.128Z,63.12
2019-01-15T10:47:38.367Z,62.39
2019-01-15T10:50:10.634Z,63.05
2019-01-15T10:52:41.781Z,62.52
2019-01-15T10:55:12.903Z,62.61
2019-01-15T10:57:45.504Z,63.12
2019-01-15T11:00:16.823Z,63.34
2019-01-15T11:02:47.967Z,63.06
2019-01-15T11:05:19.380Z,61.97
2019-01-15T11:07:50.391Z,62.25
2019-01-15T11:10:21.521Z,62.58
2019-01-15T11:12:52.570Z,62.01
2019-01-15T11:15:23.537Z,63.26
2019-01-15T11:17:54.924Z,63.00
2019-01-15T11:20:27.401Z,63.08
2019-01-15T11:22:58.776Z,62.87
2019-01-15T11:25:29.817Z,63.25
2019-01-15T11:28:00.869Z,62.10
2019-01-15T11:30:32.180Z,61.98
2019-01-15T11:33:03.156Z,62.44
2019-01-15T11:35:34.539Z,61.71
2019-01-15T11:38:05.751Z,62.44
2019-01-15T11:40:36.789Z,62.10
2019-01-15T11:43:08.103Z,62.62
2019-01-15T11:45:39.080Z,62.79
2019-01-15T11:48:10.595Z,61.66
2019-01-15T11:50:44.731Z,62.36
2019-01-15T11:53:15.784Z,61.52
2019-01-15T11:55:46.816Z,61.57
2019-01-15T11:58:17.777Z,61.38
2019-01-15T12:01:08.020Z,61.12
2019-01-15T12:03:52.025Z,61.23
2019-01-15T12:06:57.173Z,61.33
2019-01-15T12:09:44.737Z,61.91
2019-01-15T12:12:37.019Z,62.45
2019-01-15T12:15:26.192Z,61.92
2019-01-15T12:18:24.963Z,61.91
2019-01-15T12:21:13.781Z,62.33
2019-01-15T12:24:02.163Z,61.74
2019-01-15T12:26:50.809Z,61.51
2019-01-15T12:29:46.635Z,62.19
2019-01-15T12:32:30.343Z,62.40
2019-01-15T12:35:10.968Z,62.29
2019-01-15T12:38:03.684Z,62.71
2019-01-15T12:40:56.692Z,63.06
2019-01-15T12:43:36.053Z,63.29
2019-01-15T12:46:29.089Z,63.02
2019-01-15T12:49:22.146Z,62.42
2019-01-15T12:52:21.447Z,62.32
2019-01-15T12:55:10.060Z,62.60
2019-01-15T12:58:14.453Z,62.67
2019-01-15T13:01:03.272Z,62.37
2019-01-15T13:03:45.577Z,62.47
2019-01-15T13:06:38.882Z,62.04
2019-01-15T13:09:31.979Z,61.29
2019-01-15T13:12:20.792Z,62.85
2019-01-15T13:15:26.036Z,62.57
2019-01-15T13:18:12.276Z,62.79
2019-01-15T13:20:57.794Z,62.85
2019-01-15T13:23:46.594Z,62.71
2019-01-15T13:26:35.219Z,62.76
2019-01-15T13:29:21.395Z,62.72
2019-01-15T13:32:10.578Z,62.05
2019-01-15T13:34:59.080Z,61.72
2019-01-15T13:37:45.165Z,62.07
2019-01-15T13:40:33.524Z,62.15
2019-01-15T13:43:23.680Z,61.91
2019-01-15T13:46:17.044Z,61.83
2019-01-15T13:49:09.964Z,61.24
2019-01-15T13:51:59.950Z,62.02
2019-01-15T13:54:48.571Z,61.63
2019-01-15T13:57:30.257Z,61.96
2019-01-15T14:00:21.900Z,61.54
2019-01-15T14:03:10.915Z,61.55
2019-01-15T14:05:57.559Z,62.92
2019-01-15T14:08:59.999Z,61.64
2019-01-15T14:11:48.672Z,62.19
2019-01-15T14:14:39.644Z,62.31
2019-01-15T14:17:28.409Z,62.03
2019-01-15T14:20:30.465Z,63.21
2019-01-15T14:23:17.297Z,62.04
2019-01-15T14:26:12.989Z,61.35
2019-01-15T14:29:02.909Z,62.01
2019-01-15T14:31:52.830Z,61.69
2019-01-15T14:34:41.271Z,61.89
2019-01-15T14:37:29.952Z,61.60
2019-01-15T14:40:11.536Z,61.63
2019-01-15T14:43:00.080Z,62.30
2019-01-15T14:45:57.242Z,61.96
2019-01-15T14:48:54.846Z,62.66
2019-01-15T14:51:47.967Z,62.72
2019-01-15T14:54:46.369Z,61.82
2019-01-15T14:57:41.159Z,61.86
2019-01-15T15:00:48.607Z,62.57
2019-01-15T15:03:33.485Z,61.84
2019-01-15T15:06:36.306Z,61.70
2019-01-15T15:09:29.714Z,61.92
2019-01-15T15:12:08.832Z,61.74
2019-01-15T15:15:04.159Z,61.11
2019-01-15T15:18:06.350Z,61.48
2019-01-15T15:20:55.657Z,60.89
2019-01-15T15:24:01.450Z,61.05
2019-01-15T15:26:42.487Z,61.45
2019-01-15T15:29:22.283Z,61.35
2019-01-15T15:32:10.779Z,61.25
2019-01-15T15:34:59.968Z,60.29
2019-01-15T15:37:51.196Z,60.33
2019-01-15T15:40:37.049Z,61.27
2019-01-15T15:43:28.297Z,60.57
2019-01-15T15:46:26.286Z,60.70
2019-01-15T15:49:13.937Z,61.30
2019-01-15T15:52:01.264Z,60.68
2019-01-15T15:54:57.099Z,59.82
2019-01-15T15:57:53.345Z,59.69
2019-01-15T16:00:51.825Z,60.10
2019-01-15T16:03:30.981Z,59.80
2019-01-15T16:06:29.577Z,60.23
2019-01-15T16:09:08.888Z,60.20
2019-01-15T16:11:58.215Z,59.65
2019-01-15T16:14:44.722Z,59.29
2019-01-15T16:17:26.960Z,59.51
2019-01-15T16:20:07.985Z,59.73
2019-01-15T16:23:07.237Z,59.65
2019-01-15T16:26:00.113Z,59.57
2019-01-15T16:28:50.245Z,59.84
2019-01-15T16:31:44.499Z,59.97
2019-01-15T16:34:24.886Z,59.79
2019-01-15T16:37:14.017Z,59.70
2019-01-15T16:40:08.356Z,60.11
2019-01-15T16:42:56.964Z,60.27
2019-01-15T16:45:46.240Z,60.51
2019-01-15T16:48:39.291Z,60.45
2019-01-15T16:51:23.968Z,60.67
2019-01-15T16:54:12.712Z,61.73
2019-01-15T16:57:01.619Z,60.81
2019-01-15T17:00:09.792Z,60.47
2019-01-15T17:02:58.511Z,60.27
2019-01-15T17:05:57.946Z,60.42
2019-01-15T17:08:50.839Z,60.68
2019-01-15T17:11:35.394Z,60.72
2019-01-15T17:14:19.211Z,60.66
2019-01-15T17:17:08.604Z,60.28
2019-01-15T17:19:52.871Z,60.58
2019-01-15T17:22:45.879Z,60.55
2019-01-15T17:25:36.185Z,60.73
2019-01-15T17:28:25.231Z,60.93
2019-01-15T17:31:18.895Z,60.47
2019-01-15T17:34:09.938Z,60.66
2019-01-15T17:36:50.721Z,60.88
2019-01-15T17:39:38.709Z,60.81
2019-01-15T17:42:27.826Z,61.13
2019-01-15T17:45:16.691Z,61.10
2019-01-15T17:48:12.654Z,61.13
2019-01-15T17:51:05.577Z,60.88
2019-01-15T17:53:48.998Z,61.65
2019-01-15T17:56:40.283Z,61.31
2019-01-15T17:59:37.075Z,61.00
2019-01-15T18:02:26.568Z,61.82
2019-01-15T18:05:12.247Z,61.27
2019-01-15T18:08:00.764Z,61.61
2019-01-15T18:10:49.648Z,60.80
2019-01-15T18:13:39.643Z,61.19
2019-01-15T18:16:29.047Z,60.79
2019-01-15T18:19:25.340Z,61.27
2019-01-15T18:22:14.075Z,61.09
2019-01-15T18:24:58.794Z,61.14
2019-01-15T18:27:43.906Z,60.85
2019-01-15T18:30:33.327Z,60.58
2019-01-15T18:33:32.234Z,60.33
2019-01-15T18:36:17.353Z,60.87
2019-01-15T18:39:13.844Z,60.67
2019-01-15T18:42:10.080Z,60.63
2019-01-15T18:44:51.094Z,60.72
2019-01-15T18:47:39.796Z,61.55
2019-01-15T18:50:35.985Z,60.87
2019-01-15T18:53:24.939Z,61.22
2019-01-15T18:56:17.947Z,61.26
2019-01-15T18:59:16.528Z,61.29
2019-01-15T19:02:06.456Z,61.01
2019-01-15T19:05:04.543Z,60.81
2019-01-15T19:07:56.921Z,60.93
2019-01-15T19:10:49.636Z,61.33
2019-01-15T19:13:35.316Z,61.62
2019-01-15T19:16:21.793Z,61.49
2019-01-15T19:19:27.232Z,61.62
2019-01-15T19:22:23.239Z,61.31
2019-01-15T19:25:12.528Z,61.33
2019-01-15T19:28:17.561Z,61.08
2019-01-15T19:31:08.677Z,61.15
2019-01-15T19:34:04.914Z,61.30
2019-01-15T19:36:56.540Z,61.04
2019-01-15T19:39:42.454Z,61.23
2019-01-15T19:42:31.406Z,61.00
2019-01-15T19:45:24.464Z,60.86
2019-01-15T19:48:20.091Z,61.19
2019-01-15T19:51:22.204Z,61.42
2019-01-15T19:54:19.767Z,60.60
2019-01-15T19:57:19.008Z,60.89
2019-01-15T20:00:13.821Z,61.39
2019-01-15T20:03:16.231Z,60.86
2019-01-15T20:06:05.110Z,61.24
2019-01-15T20:08:55.762Z,60.67
2019-01-15T20:11:54.667Z,60.53
2019-01-15T20:14:53.230Z,60.36
2019-01-15T20:17:42.038Z,60.78
2019-01-15T20:20:21.625Z,60.37
2019-01-15T20:23:15.937Z,60.63
2019-01-15T20:26:00.021Z,60.35
2019-01-15T20:28:42.884Z,61.22
2019-01-15T20:31:31.687Z,60.77
2019-01-15T20:34:15.371Z,60.34
2019-01-15T20:36:55.856Z,60.65
2019-01-15T20:39:45.803Z,60.76
2019-01-15T20:42:31.277Z,60.34
2019-01-15T20:45:20.845Z,60.32
2019-01-15T20:48:23.151Z,60.45
2019-01-15T20:51:13.163Z,60.73
2019-01-15T20:53:53.607Z,60.00
2019-01-15T20:56:53.610Z,60.21
2019-01-15T20:59:46.100Z,60.00
2019-01-15T21:02:25.301Z,59.80
2019-01-15T21:05:14.135Z,59.85
2019-01-15T21:08:06.826Z,59.78
2019-01-15T21:10:55.326Z,59.92
2019-01-15T21:13:48.066Z,60.04
2019-01-15T21:16:53.900Z,60.19
2019-01-15T21:19:37.962Z,59.70
2019-01-15T21:22:26.792Z,59.94
2019-01-15T21:25:25.732Z,59.96
2019-01-15T21:28:20.853Z,59.93
2019-01-15T21:31:23.188Z,60.08
2019-01-15T21:34:13.185Z,59.67
2019-01-15T21:37:06.314Z,59.78
2019-01-15T21:39:56.244Z,59.41
2019-01-15T21:42:44.896Z,59.38
2019-01-15T21:45:35.103Z,59.47
2019-01-15T21:48:24.287Z,59.36
2019-01-15T21:51:12.513Z,59.27
2019-01-15T21:54:11.440Z,59.72
2019-01-15T21:57:00.550Z,59.59
2019-01-15T21:59:50.809Z,59.35
2019-01-15T22:02:33.205Z,59.81
2019-01-15T22:05:24.056Z,59.49
2019-01-15T22:08:26.792Z,59.30
2019-01-15T22:11:15.828Z,59.42
2019-01-15T22:13:59.916Z,59.92
2019-01-15T22:16:50.495Z,59.98
2019-01-15T22:19:43.201Z,59.59
2019-01-15T22:22:31.984Z,59.23
2019-01-15T22:25:22.002Z,59.21
2019-01-15T22:28:20.933Z,59.37
2019-01-15T22:31:09.682Z,59.21
2019-01-15T22:33:59.633Z,59.46
2019-01-15T22:36:51.013Z,59.07
2019-01-15T22:39:41.144Z,59.16
2019-01-15T22:42:28.903Z,59.20
2019-01-15T22:45:25.277Z,58.95
2019-01-15T22:48:17.143Z,58.82
2019-01-15T22:51:09.742Z,58.82
2019-01-15T22:54:08.701Z,58.24
2019-01-15T22:56:47.375Z,58.34
2019-01-15T22:59:38.275Z,58.64
2019-01-15T23:02:16.818Z,59.65
2019-01-15T23:05:05.754Z,59.45
2019-01-15T23:07:56.598Z,58.81
2019-01-15T23:10:46.332Z,58.51
2019-01-15T23:13:33.380Z,59.75
2019-01-15T23:16:17.497Z,59.28
2019-01-15T23:19:02.271Z,58.82
2019-01-15T23:21:50.589Z,59.23
2019-01-15T23:24:44.784Z,58.53
2019-01-15T23:27:43.887Z,59.84
2019-01-15T23:30:30.447Z,60.02
2019-01-15T23:33:18.271Z,59.26
2019-01-15T23:36:14.202Z,59.55
2019-01-15T23:39:16.480Z,59.49
2019-01-15T23:42:05.611Z,59.08
2019-01-15T23:45:04.503Z,59.60
2019-01-15T23:47:52.992Z,58.96
2019-01-15T23:50:49.296Z,58.91
2019-01-15T23:53:49.491Z,59.53
2019-01-15T23:56:41.957Z,60.35
2019-01-15T23:59:44.084Z,59.19
